• Join FlightAware (Why Join?)
  • Login
  • US Flag 
04:29AM EDT


 

Airport Tracker/Info


-or-


 

Live Flight TrackerFlight Track Log ✈ UCA3599 ✈ 12-Nov-2013 ✈ KBGM - KIAD

Flight Track Log - Related Links

Times and Time Zones

All times are in EST time to prevent confusion due to time zone crossing. See the UCA3599 flight status page for this flight to view local times or setup timezone preferences in your user account.

Time Position Orientation Groundspeed Altitude Reporting Facility
EST Latitude Longitude Course Direction KTS MPH feet Rate Location/Type
06:33AM 42.2242 -76.0072 208° Southwest 112 129 3,000  Level New York Center
06:34AM 42.2239 -76.0633 270° West 146 168 4,000 1,080 Climbing New York Center
06:35AM 42.1725 -76.0956 205° Southwest 156 180 5,300 1,200 Climbing New York Center
06:36AM 42.1247 -76.1364 212° Southwest 185 213 6,400 1,140 Climbing New York Center
06:37AM 42.0750 -76.1800 213° Southwest 205 236 7,600 1,200 Climbing New York Center
06:38AM 42.0172 -76.2142 204° Southwest 223 257 8,800 1,380 Climbing New York Center
06:39AM 41.8267 -76.1610 208° Southwest  Level Estimated
06:39AM 41.9639 -76.2406 200° South 224 258 10,400  Level New York Center
06:40AM 41.9233 -76.2650 204° Southwest 196 226 11,800 1,200 Climbing New York Center
06:41AM 41.8678 -76.2967 203° Southwest 191 220 12,900 1,200 Climbing New York Center
06:42AM 41.8206 -76.3233 203° Southwest 197 227 14,200 1,380 Climbing New York Center
06:43AM 41.7758 -76.3475 202° Southwest 192 221 15,700 900 Climbing New York Center
06:44AM 41.7350 -76.3719 204° Southwest 177 204 16,000 120 Climbing New York Center
06:45AM 41.6836 -76.4008 203° Southwest 189 217 16,000  Level New York Center
06:46AM 41.6239 -76.4319 201° Southwest 204 235 16,000  Level New York Center
06:47AM 41.5683 -76.4633 203° Southwest 209 241 16,000  Level New York Center
06:48AM 41.5128 -76.4919 201° Southwest 216 249 16,000  Level New York Center
06:49AM 41.4636 -76.5181 202° Southwest 216 249 16,000  Level New York Center
06:50AM 41.4036 -76.5489 201° Southwest 216 249 16,000  Level New York Center
06:51AM 41.3503 -76.5775 202° Southwest 216 249 16,000  Level New York Center
06:52AM 41.2989 -76.6064 203° Southwest 216 249 16,000  Level New York Center
06:53AM 41.2539 -76.6328 204° Southwest 211 243 16,000  Level New York Center
06:54AM 41.2003 -76.6611 202° Southwest 211 243 16,000  Level New York Center
06:55AM 41.1403 -76.6972 204° Southwest 211 243 16,000  Level New York Center
06:56AM 41.0889 -76.7231 201° Southwest 211 243 16,000  Level New York Center
06:57AM 41.0353 -76.7542 204° Southwest 211 243 16,000  Level New York Center
06:58AM 40.9797 -76.7822 201° Southwest 211 243 16,000  Level New York Center
06:59AM 40.9303 -76.8081 202° Southwest 216 249 16,000  Level New York Center
07:00AM 40.8725 -76.8414 204° Southwest 216 249 16,000  Level New York Center
07:01AM 40.8231 -76.8672 202° Southwest 221 254 16,000  Level New York Center
07:02AM 40.7592 -76.8944 198° South 221 254 16,000  Level New York Center
07:03AM 40.7019 -76.9139 194° South 221 254 16,000  Level New York Center
07:04AM 40.6406 -76.9331 193° South 226 260 16,000  Level New York Center
07:05AM 40.5833 -76.9497 192° South 221 254 16,000  Level New York Center
07:06AM 40.5242 -76.9664 192° South 227 261 16,000  Level New York Center
07:07AM 40.4689 -76.9858 195° South 222 255 16,000  Level New York Center
07:08AM 40.4117 -77.0025 193° South 217 250 16,000  Level New York Center
07:09AM 40.3586 -77.0197 194° South 217 250 16,000  Level New York Center
07:10AM 40.2972 -77.0386 193° South 217 250 16,000  Level New York Center
07:11AM 40.2442 -77.0556 194° South 217 250 16,000 -480 Level New York Center
07:12AM 40.1786 -77.0742 192° South 222 255 15,100 -1,140 Descending New York Center
07:14AM 40.0833 -77.1000 192° South 234 269 13,100 -1,200 Descending Potomac TRACON
07:15AM 40.0167 -77.1167 191° South 241 277 12,100 -1,260 Descending Potomac TRACON
07:16AM 39.9500 -77.1500 201° Southwest 256 295 10,900 -1,200 Descending Potomac TRACON
07:17AM 39.8833 -77.1667 191° South 263 303 9,800 -960 Descending Potomac TRACON
07:18AM 39.8167 -77.2000 201° Southwest 251 289 8,900 -780 Descending Potomac TRACON
07:19AM 39.7500 -77.2167 191° South 231 266 8,400 -540 Descending Potomac TRACON
07:20AM 39.7000 -77.2500 207° Southwest 233 268 7,900 -540 Descending Potomac TRACON
07:21AM 39.6333 -77.2667 191° South 248 285 7,400 -480 Descending Potomac TRACON
07:22AM 39.5667 -77.3000 201° Southwest 251 289 7,000 -240 Descending Potomac TRACON
07:23AM 39.5167 -77.3167 194° South 241 277 7,000  Level Potomac TRACON
07:24AM 39.4500 -77.3500 201° Southwest 230 265 7,000 -60 Level Potomac TRACON
07:25AM 39.3833 -77.3667 191° South 238 274 6,900 -780 Descending Potomac TRACON
07:26AM 39.3167 -77.3667 180° South 250 288 5,600 -1,020 Descending Potomac TRACON
07:27AM 39.2500 -77.3667 180° South 257 296 5,000 -660 Descending Potomac TRACON
07:28AM 39.1833 -77.3500 169° South 260 299 4,400 -540 Descending Potomac TRACON
07:29AM 39.1000 -77.3500 180° South 252 290 4,000 -240 Descending Potomac TRACON
07:30AM 39.0333 -77.3500 180° South 253 291 4,000  Level Potomac TRACON
07:31AM 38.9667 -77.3500 180° South 259 298 4,000 -60 Level Potomac TRACON
07:32AM 38.9000 -77.3500 180° South 257 296 3,900 -840 Descending Potomac TRACON
07:33AM 38.8333 -77.3833 201° Southwest 223 257 2,400 -1,260 Descending Potomac TRACON
07:34AM 38.8500 -77.4167 303° West 129 148 1,500 -660 Descending Potomac TRACON
07:35AM 38.8833 -77.4333 339° North 95 109 1,200 -360 Descending Potomac TRACON
07:36AM 38.9000 -77.4333 360° North 83 96 800 -420 Descending Potomac TRACON
07:38AM 38.9333 -77.4500 349° North  Level FlightAware Approximate
07:45AM 38.9474 -77.4599 349° North  Level Estimated